sensor_id;sensor_type;location;lat;lon;timestamp;pressure;altitude;pressure_sealevel;temperature;humidity
33265;BME280;31404;53.974;-1.086;2023-06-22T00:00:34;101765.96;;;13.63;93.71
33265;BME280;31404;53.974;-1.086;2023-06-22T00:05:34;101762.06;;;14.20;91.57
33265;BME280;31404;53.974;-1.086;2023-06-22T00:10:35;101760.98;;;13.92;91.74
33265;BME280;31404;53.974;-1.086;2023-06-22T00:15:36;101762.68;;;16.99;79.34
33265;BME280;31404;53.974;-1.086;2023-06-22T00:20:35;101769.77;;;15.41;83.56
33265;BME280;31404;53.974;-1.086;2023-06-22T00:25:36;101768.43;;;16.46;80.24
33265;BME280;31404;53.974;-1.086;2023-06-22T00:35:35;101758.59;;;17.90;73.53
33265;BME280;31404;53.974;-1.086;2023-06-22T00:40:35;101761.50;;;18.80;69.22
33265;BME280;31404;53.974;-1.086;2023-06-22T00:45:34;101765.11;;;18.45;70.22
33265;BME280;31404;53.974;-1.086;2023-06-22T00:50:34;101770.13;;;18.72;69.36
33265;BME280;31404;53.974;-1.086;2023-06-22T00:55:36;101766.94;;;17.95;71.03
33265;BME280;31404;53.974;-1.086;2023-06-22T01:00:34;101772.25;;;17.49;73.17
33265;BME280;31404;53.974;-1.086;2023-06-22T01:05:34;101773.99;;;16.62;75.73
33265;BME280;31404;53.974;-1.086;2023-06-22T01:15:39;101772.17;;;13.98;88.95
33265;BME280;31404;53.974;-1.086;2023-06-22T01:20:37;101766.69;;;16.40;77.51
33265;BME280;31404;53.974;-1.086;2023-06-22T01:30:35;101772.63;;;16.76;76.15
33265;BME280;31404;53.974;-1.086;2023-06-22T01:35:34;101770.07;;;17.32;74.61
33265;BME280;31404;53.974;-1.086;2023-06-22T01:40:36;101772.93;;;17.83;72.77
33265;BME280;31404;53.974;-1.086;2023-06-22T01:45:34;101782.55;;;16.49;75.67
33265;BME280;31404;53.974;-1.086;2023-06-22T01:50:34;101782.69;;;18.16;72.13
33265;BME280;31404;53.974;-1.086;2023-06-22T01:55:34;101788.95;;;18.42;70.42
33265;BME280;31404;53.974;-1.086;2023-06-22T02:10:36;101789.05;;;19.58;66.95
33265;BME280;31404;53.974;-1.086;2023-06-22T02:15:33;101792.74;;;18.97;68.95
33265;BME280;31404;53.974;-1.086;2023-06-22T02:20:37;101799.33;;;18.50;70.60
33265;BME280;31404;53.974;-1.086;2023-06-22T02:25:34;101805.87;;;17.86;72.28
33265;BME280;31404;53.974;-1.086;2023-06-22T02:30:35;101804.27;;;18.42;70.84
33265;BME280;31404;53.974;-1.086;2023-06-22T02:35:35;101807.19;;;18.30;70.63
33265;BME280;31404;53.974;-1.086;2023-06-22T02:40:35;101812.54;;;18.97;68.19
33265;BME280;31404;53.974;-1.086;2023-06-22T02:45:35;101815.67;;;18.76;69.08
33265;BME280;31404;53.974;-1.086;2023-06-22T02:50:34;101816.34;;;18.74;68.48
33265;BME280;31404;53.974;-1.086;2023-06-22T02:55:34;101817.78;;;18.08;70.73
33265;BME280;31404;53.974;-1.086;2023-06-22T03:00:34;101816.66;;;17.74;72.41
33265;BME280;31404;53.974;-1.086;2023-06-22T03:05:34;101819.60;;;19.26;68.06
33265;BME280;31404;53.974;-1.086;2023-06-22T03:10:34;101826.40;;;18.88;69.63
33265;BME280;31404;53.974;-1.086;2023-06-22T03:15:35;101825.26;;;18.37;69.45
33265;BME280;31404;53.974;-1.086;2023-06-22T03:20:35;101835.02;;;19.18;67.76
33265;BME280;31404;53.974;-1.086;2023-06-22T03:25:35;101833.93;;;18.29;70.36
33265;BME280;31404;53.974;-1.086;2023-06-22T03:30:34;101833.27;;;17.59;72.35
33265;BME280;31404;53.974;-1.086;2023-06-22T03:35:34;101829.91;;;18.31;70.88
33265;BME280;31404;53.974;-1.086;2023-06-22T03:40:34;101829.00;;;18.08;71.11
33265;BME280;31404;53.974;-1.086;2023-06-22T03:45:34;101830.43;;;18.44;70.36
33265;BME280;31404;53.974;-1.086;2023-06-22T03:50:28;101838.19;;;18.83;69.15
33265;BME280;31404;53.974;-1.086;2023-06-22T03:55:34;101832.04;;;19.22;67.73
33265;BME280;31404;53.974;-1.086;2023-06-22T04:00:34;101835.72;;;18.96;69.15
33265;BME280;31404;53.974;-1.086;2023-06-22T04:05:34;101836.04;;;18.70;68.18
33265;BME280;31404;53.974;-1.086;2023-06-22T04:10:34;101839.01;;;19.14;67.55
33265;BME280;31404;53.974;-1.086;2023-06-22T04:15:34;101833.96;;;17.73;71.32
33265;BME280;31404;53.974;-1.086;2023-06-22T04:20:35;101839.51;;;17.40;73.67
33265;BME280;31404;53.974;-1.086;2023-06-22T04:25:34;101838.51;;;18.00;72.49
33265;BME280;31404;53.974;-1.086;2023-06-22T04:30:34;101838.47;;;18.36;70.79
33265;BME280;31404;53.974;-1.086;2023-06-22T04:35:34;101843.91;;;19.04;69.57
33265;BME280;31404;53.974;-1.086;2023-06-22T04:40:34;101841.87;;;18.68;69.55
33265;BME280;31404;53.974;-1.086;2023-06-22T04:45:34;101844.78;;;18.33;70.69
33265;BME280;31404;53.974;-1.086;2023-06-22T04:50:35;101852.79;;;19.05;67.88
33265;BME280;31404;53.974;-1.086;2023-06-22T04:55:34;101857.36;;;19.10;67.91
33265;BME280;31404;53.974;-1.086;2023-06-22T05:00:39;101857.78;;;19.26;67.03
33265;BME280;31404;53.974;-1.086;2023-06-22T05:05:35;101850.19;;;18.68;67.92
33265;BME280;31404;53.974;-1.086;2023-06-22T05:10:35;101852.20;;;17.08;73.04
33265;BME280;31404;53.974;-1.086;2023-06-22T05:15:35;101848.92;;;17.11;74.28
33265;BME280;31404;53.974;-1.086;2023-06-22T05:20:36;101851.12;;;17.10;75.00
33265;BME280;31404;53.974;-1.086;2023-06-22T05:25:37;101851.30;;;13.83;91.63
33265;BME280;31404;53.974;-1.086;2023-06-22T05:30:34;101849.27;;;15.02;86.09
33265;BME280;31404;53.974;-1.086;2023-06-22T05:35:35;101847.85;;;16.52;79.56
33265;BME280;31404;53.974;-1.086;2023-06-22T05:40:35;101855.40;;;16.54;79.56
33265;BME280;31404;53.974;-1.086;2023-06-22T05:45:34;101858.66;;;15.46;81.83
33265;BME280;31404;53.974;-1.086;2023-06-22T05:55:35;101857.10;;;16.79;78.00
33265;BME280;31404;53.974;-1.086;2023-06-22T06:00:35;101862.80;;;17.09;76.56
33265;BME280;31404;53.974;-1.086;2023-06-22T06:05:35;101864.24;;;17.62;75.01
33265;BME280;31404;53.974;-1.086;2023-06-22T06:10:35;101863.97;;;17.10;76.32
33265;BME280;31404;53.974;-1.086;2023-06-22T06:20:34;101861.49;;;16.40;80.32
33265;BME280;31404;53.974;-1.086;2023-06-22T06:25:41;101860.53;;;16.12;81.33
33265;BME280;31404;53.974;-1.086;2023-06-22T06:30:35;101864.03;;;16.05;83.60
33265;BME280;31404;53.974;-1.086;2023-06-22T06:35:35;101865.21;;;16.63;84.36
33265;BME280;31404;53.974;-1.086;2023-06-22T06:40:36;101865.37;;;16.02;85.53
33265;BME280;31404;53.974;-1.086;2023-06-22T06:45:35;101868.42;;;16.80;84.14
33265;BME280;31404;53.974;-1.086;2023-06-22T06:50:37;101865.26;;;17.39;81.49
33265;BME280;31404;53.974;-1.086;2023-06-22T06:55:35;101876.94;;;16.97;83.40
33265;BME280;31404;53.974;-1.086;2023-06-22T07:00:35;101873.46;;;17.31;83.00
33265;BME280;31404;53.974;-1.086;2023-06-22T07:05:34;101872.63;;;16.88;85.06
33265;BME280;31404;53.974;-1.086;2023-06-22T07:10:34;101876.99;;;16.91;91.72
33265;BME280;31404;53.974;-1.086;2023-06-22T07:15:35;101871.19;;;17.57;88.12
33265;BME280;31404;53.974;-1.086;2023-06-22T07:20:35;101880.01;;;17.56;87.67
33265;BME280;31404;53.974;-1.086;2023-06-22T07:25:41;101885.46;;;19.12;75.50
33265;BME280;31404;53.974;-1.086;2023-06-22T07:30:34;101888.98;;;19.28;75.65
33265;BME280;31404;53.974;-1.086;2023-06-22T07:35:34;101884.90;;;17.08;83.98
33265;BME280;31404;53.974;-1.086;2023-06-22T07:40:34;101876.69;;;18.02;81.85
33265;BME280;31404;53.974;-1.086;2023-06-22T07:45:34;101883.20;;;16.85;84.65
33265;BME280;31404;53.974;-1.086;2023-06-22T07:50:35;101884.08;;;18.30;78.15
33265;BME280;31404;53.974;-1.086;2023-06-22T07:55:35;101879.23;;;18.26;80.63
33265;BME280;31404;53.974;-1.086;2023-06-22T08:00:35;101884.45;;;16.79;89.61
33265;BME280;31404;53.974;-1.086;2023-06-22T08:05:34;101891.46;;;16.60;90.54
33265;BME280;31404;53.974;-1.086;2023-06-22T08:10:34;101890.48;;;18.19;81.83
33265;BME280;31404;53.974;-1.086;2023-06-22T08:15:34;101893.60;;;18.49;78.18
33265;BME280;31404;53.974;-1.086;2023-06-22T08:20:34;101893.68;;;19.56;74.03
33265;BME280;31404;53.974;-1.086;2023-06-22T08:25:35;101892.32;;;19.08;74.25
33265;BME280;31404;53.974;-1.086;2023-06-22T08:30:35;101892.11;;;18.92;75.32
33265;BME280;31404;53.974;-1.086;2023-06-22T08:35:35;101889.42;;;20.65;70.50
33265;BME280;31404;53.974;-1.086;2023-06-22T08:40:35;101898.05;;;19.45;72.06
33265;BME280;31404;53.974;-1.086;2023-06-22T08:45:35;101895.95;;;19.81;71.73
33265;BME280;31404;53.974;-1.086;2023-06-22T08:50:34;101892.84;;;20.41;70.80
33265;BME280;31404;53.974;-1.086;2023-06-22T08:55:34;101892.65;;;19.77;73.43
33265;BME280;31404;53.974;-1.086;2023-06-22T09:00:34;101885.95;;;20.32;71.05
33265;BME280;31404;53.974;-1.086;2023-06-22T09:05:34;101885.78;;;19.58;73.84
33265;BME280;31404;53.974;-1.086;2023-06-22T09:10:35;101882.31;;;20.65;72.29
33265;BME280;31404;53.974;-1.086;2023-06-22T09:15:35;101889.78;;;19.55;74.95
33265;BME280;31404;53.974;-1.086;2023-06-22T09:20:34;101892.59;;;19.74;75.40
33265;BME280;31404;53.974;-1.086;2023-06-22T09:25:34;101894.33;;;19.92;75.75
33265;BME280;31404;53.974;-1.086;2023-06-22T09:30:34;101893.43;;;17.75;87.49
33265;BME280;31404;53.974;-1.086;2023-06-22T09:35:34;101892.80;;;19.61;76.58
33265;BME280;31404;53.974;-1.086;2023-06-22T09:40:41;101889.42;;;20.10;76.10
33265;BME280;31404;53.974;-1.086;2023-06-22T09:45:35;101888.26;;;20.38;72.62
33265;BME280;31404;53.974;-1.086;2023-06-22T09:50:35;101890.88;;;20.56;73.35
33265;BME280;31404;53.974;-1.086;2023-06-22T09:55:35;101899.52;;;20.22;74.09
33265;BME280;31404;53.974;-1.086;2023-06-22T10:00:35;101902.31;;;20.55;71.43
33265;BME280;31404;53.974;-1.086;2023-06-22T10:05:35;101903.68;;;21.41;68.71
33265;BME280;31404;53.974;-1.086;2023-06-22T10:15:34;101900.65;;;21.10;67.67
33265;BME280;31404;53.974;-1.086;2023-06-22T10:20:35;101900.11;;;21.06;70.32
33265;BME280;31404;53.974;-1.086;2023-06-22T10:25:35;101906.01;;;21.45;67.40
33265;BME280;31404;53.974;-1.086;2023-06-22T10:30:35;101903.09;;;22.94;60.75
33265;BME280;31404;53.974;-1.086;2023-06-22T10:35:35;101910.10;;;21.43;59.43
33265;BME280;31404;53.974;-1.086;2023-06-22T10:40:35;101903.38;;;21.20;61.38
33265;BME280;31404;53.974;-1.086;2023-06-22T10:45:35;101903.07;;;22.35;58.54
33265;BME280;31404;53.974;-1.086;2023-06-22T10:50:35;101903.96;;;21.77;59.78
33265;BME280;31404;53.974;-1.086;2023-06-22T10:55:35;101902.71;;;20.79;63.72
33265;BME280;31404;53.974;-1.086;2023-06-22T11:00:34;101911.76;;;21.16;60.82
33265;BME280;31404;53.974;-1.086;2023-06-22T11:05:34;101905.32;;;22.57;58.08
33265;BME280;31404;53.974;-1.086;2023-06-22T11:10:35;101911.91;;;21.42;60.01
33265;BME280;31404;53.974;-1.086;2023-06-22T11:15:35;101904.87;;;22.39;57.09
33265;BME280;31404;53.974;-1.086;2023-06-22T11:20:35;101907.26;;;22.39;58.28
33265;BME280;31404;53.974;-1.086;2023-06-22T11:25:34;101909.02;;;21.87;58.93
33265;BME280;31404;53.974;-1.086;2023-06-22T11:30:34;101901.45;;;23.07;57.44
33265;BME280;31404;53.974;-1.086;2023-06-22T11:35:34;101900.72;;;21.31;60.85
33265;BME280;31404;53.974;-1.086;2023-06-22T11:40:34;101893.52;;;22.25;58.42
33265;BME280;31404;53.974;-1.086;2023-06-22T11:45:35;101896.98;;;21.52;59.56
33265;BME280;31404;53.974;-1.086;2023-06-22T11:50:35;101896.08;;;21.92;58.63
33265;BME280;31404;53.974;-1.086;2023-06-22T11:55:35;101890.51;;;23.34;56.18
33265;BME280;31404;53.974;-1.086;2023-06-22T12:00:35;101884.75;;;23.09;56.34
33265;BME280;31404;53.974;-1.086;2023-06-22T12:05:35;101882.95;;;22.30;59.14
33265;BME280;31404;53.974;-1.086;2023-06-22T12:10:34;101883.41;;;21.89;59.10
33265;BME280;31404;53.974;-1.086;2023-06-22T12:15:35;101876.63;;;22.21;58.53
33265;BME280;31404;53.974;-1.086;2023-06-22T12:20:35;101871.70;;;21.85;59.67
33265;BME280;31404;53.974;-1.086;2023-06-22T12:25:35;101870.67;;;21.28;60.04
33265;BME280;31404;53.974;-1.086;2023-06-22T12:30:35;101859.52;;;22.60;58.29
33265;BME280;31404;53.974;-1.086;2023-06-22T12:35:36;101857.50;;;25.07;54.32
33265;BME280;31404;53.974;-1.086;2023-06-22T12:40:35;101861.64;;;22.93;57.01
33265;BME280;31404;53.974;-1.086;2023-06-22T12:45:34;101853.69;;;24.36;54.42
33265;BME280;31404;53.974;-1.086;2023-06-22T12:50:35;101856.38;;;23.01;55.77
33265;BME280;31404;53.974;-1.086;2023-06-22T12:55:34;101845.68;;;24.93;53.11
33265;BME280;31404;53.974;-1.086;2023-06-22T13:00:34;101848.46;;;22.37;56.97
33265;BME280;31404;53.974;-1.086;2023-06-22T13:05:34;101845.19;;;23.67;55.28
33265;BME280;31404;53.974;-1.086;2023-06-22T13:10:34;101839.84;;;24.14;54.37
33265;BME280;31404;53.974;-1.086;2023-06-22T13:15:35;101846.92;;;22.87;56.17
33265;BME280;31404;53.974;-1.086;2023-06-22T13:20:34;101842.56;;;23.51;54.83
33265;BME280;31404;53.974;-1.086;2023-06-22T13:25:36;101841.20;;;21.82;58.94
33265;BME280;31404;53.974;-1.086;2023-06-22T13:30:34;101845.22;;;23.23;56.04
33265;BME280;31404;53.974;-1.086;2023-06-22T13:35:34;101841.19;;;22.56;55.34
33265;BME280;31404;53.974;-1.086;2023-06-22T13:40:34;101845.37;;;22.77;57.02
33265;BME280;31404;53.974;-1.086;2023-06-22T13:45:34;101833.18;;;23.74;54.78
33265;BME280;31404;53.974;-1.086;2023-06-22T13:50:34;101829.12;;;22.53;56.89
33265;BME280;31404;53.974;-1.086;2023-06-22T13:55:34;101829.96;;;24.88;52.07
33265;BME280;31404;53.974;-1.086;2023-06-22T14:00:34;101831.33;;;24.97;52.62
33265;BME280;31404;53.974;-1.086;2023-06-22T14:05:35;101837.17;;;24.88;53.50
33265;BME280;31404;53.974;-1.086;2023-06-22T14:10:35;101840.50;;;21.95;58.89
33265;BME280;31404;53.974;-1.086;2023-06-22T14:15:34;101841.22;;;23.70;55.40
33265;BME280;31404;53.974;-1.086;2023-06-22T14:20:35;101841.79;;;21.24;59.59
33265;BME280;31404;53.974;-1.086;2023-06-22T14:25:35;101837.14;;;21.17;60.24
33265;BME280;31404;53.974;-1.086;2023-06-22T14:30:35;101833.18;;;23.95;55.55
33265;BME280;31404;53.974;-1.086;2023-06-22T14:35:36;101835.41;;;25.18;53.71
33265;BME280;31404;53.974;-1.086;2023-06-22T14:40:35;101838.39;;;25.42;52.98
33265;BME280;31404;53.974;-1.086;2023-06-22T14:45:35;101834.63;;;25.21;53.77
33265;BME280;31404;53.974;-1.086;2023-06-22T14:50:35;101842.66;;;23.00;55.48
33265;BME280;31404;53.974;-1.086;2023-06-22T14:55:35;101838.96;;;22.12;59.21
33265;BME280;31404;53.974;-1.086;2023-06-22T15:00:34;101841.60;;;23.40;56.19
33265;BME280;31404;53.974;-1.086;2023-06-22T15:05:35;101840.74;;;24.01;55.26
33265;BME280;31404;53.974;-1.086;2023-06-22T15:10:34;101838.67;;;22.55;58.87
33265;BME280;31404;53.974;-1.086;2023-06-22T15:15:34;101843.79;;;22.49;59.35
33265;BME280;31404;53.974;-1.086;2023-06-22T15:20:34;101851.15;;;23.29;56.53
33265;BME280;31404;53.974;-1.086;2023-06-22T15:25:34;101845.08;;;23.91;55.30
33265;BME280;31404;53.974;-1.086;2023-06-22T15:30:34;101851.69;;;22.55;60.15
33265;BME280;31404;53.974;-1.086;2023-06-22T15:35:34;101849.02;;;21.84;69.51
33265;BME280;31404;53.974;-1.086;2023-06-22T15:40:35;101844.78;;;20.97;73.91
33265;BME280;31404;53.974;-1.086;2023-06-22T15:45:34;101840.83;;;22.80;69.50
33265;BME280;31404;53.974;-1.086;2023-06-22T15:50:34;101840.23;;;22.24;70.50
33265;BME280;31404;53.974;-1.086;2023-06-22T15:55:35;101840.20;;;22.36;69.03
33265;BME280;31404;53.974;-1.086;2023-06-22T16:00:35;101847.74;;;19.58;82.14
33265;BME280;31404;53.974;-1.086;2023-06-22T16:05:35;101841.97;;;20.72;76.34
33265;BME280;31404;53.974;-1.086;2023-06-22T16:10:35;101835.09;;;22.06;70.92
33265;BME280;31404;53.974;-1.086;2023-06-22T16:15:35;101834.92;;;21.92;72.63
33265;BME280;31404;53.974;-1.086;2023-06-22T16:20:35;101838.82;;;21.91;71.71
33265;BME280;31404;53.974;-1.086;2023-06-22T16:25:35;101845.49;;;22.15;71.75
33265;BME280;31404;53.974;-1.086;2023-06-22T16:30:35;101848.50;;;20.38;77.88
33265;BME280;31404;53.974;-1.086;2023-06-22T16:35:35;101844.86;;;20.24;78.50
33265;BME280;31404;53.974;-1.086;2023-06-22T16:40:35;101842.65;;;20.56;76.55
33265;BME280;31404;53.974;-1.086;2023-06-22T16:45:35;101855.82;;;19.32;81.19
33265;BME280;31404;53.974;-1.086;2023-06-22T16:50:34;101861.63;;;19.13;81.60
33265;BME280;31404;53.974;-1.086;2023-06-22T16:55:36;101861.63;;;20.74;76.19
33265;BME280;31404;53.974;-1.086;2023-06-22T17:00:35;101864.80;;;18.76;84.02
33265;BME280;31404;53.974;-1.086;2023-06-22T17:05:35;101855.86;;;18.63;84.28
33265;BME280;31404;53.974;-1.086;2023-06-22T17:15:34;101862.11;;;18.73;83.59
33265;BME280;31404;53.974;-1.086;2023-06-22T17:20:35;101869.41;;;19.17;83.39
33265;BME280;31404;53.974;-1.086;2023-06-22T17:25:35;101879.11;;;20.03;79.89
33265;BME280;31404;53.974;-1.086;2023-06-22T17:30:34;101889.00;;;19.15;80.97
33265;BME280;31404;53.974;-1.086;2023-06-22T17:55:34;101904.19;;;19.23;82.02
33265;BME280;31404;53.974;-1.086;2023-06-22T18:00:36;101905.57;;;19.60;77.48
33265;BME280;31404;53.974;-1.086;2023-06-22T18:05:36;101909.12;;;18.43;82.76
33265;BME280;31404;53.974;-1.086;2023-06-22T18:10:35;101906.90;;;19.11;81.60
33265;BME280;31404;53.974;-1.086;2023-06-22T18:15:34;101912.66;;;18.97;80.39
33265;BME280;31404;53.974;-1.086;2023-06-22T18:20:36;101915.26;;;19.29;77.50
33265;BME280;31404;53.974;-1.086;2023-06-22T18:25:35;101920.55;;;19.31;77.26
33265;BME280;31404;53.974;-1.086;2023-06-22T18:30:35;101921.47;;;19.66;74.65
33265;BME280;31404;53.974;-1.086;2023-06-22T18:35:36;101928.18;;;19.47;75.16
33265;BME280;31404;53.974;-1.086;2023-06-22T18:40:35;101927.45;;;19.26;84.70
33265;BME280;31404;53.974;-1.086;2023-06-22T18:45:35;101931.10;;;19.38;83.63
33265;BME280;31404;53.974;-1.086;2023-06-22T18:50:37;101934.29;;;19.65;73.64
33265;BME280;31404;53.974;-1.086;2023-06-22T18:55:35;101938.64;;;19.12;76.11
33265;BME280;31404;53.974;-1.086;2023-06-22T19:00:35;101942.86;;;17.48;81.52
33265;BME280;31404;53.974;-1.086;2023-06-22T19:05:38;101942.34;;;17.09;83.26
33265;BME280;31404;53.974;-1.086;2023-06-22T19:15:36;101949.60;;;18.37;79.12
33265;BME280;31404;53.974;-1.086;2023-06-22T19:20:34;101960.02;;;18.50;77.35
33265;BME280;31404;53.974;-1.086;2023-06-22T19:25:34;101972.13;;;19.75;73.25
33265;BME280;31404;53.974;-1.086;2023-06-22T19:30:35;101972.91;;;18.79;75.35
33265;BME280;31404;53.974;-1.086;2023-06-22T19:35:35;101986.00;;;18.53;74.99
33265;BME280;31404;53.974;-1.086;2023-06-22T19:50:34;101995.40;;;16.93;84.72
33265;BME280;31404;53.974;-1.086;2023-06-22T19:55:36;102011.45;;;17.86;83.32
33265;BME280;31404;53.974;-1.086;2023-06-22T20:00:34;102013.62;;;18.76;82.43
33265;BME280;31404;53.974;-1.086;2023-06-22T20:10:37;102027.27;;;18.52;83.47
33265;BME280;31404;53.974;-1.086;2023-06-22T20:20:37;102044.79;;;17.29;89.56
33265;BME280;31404;53.974;-1.086;2023-06-22T20:25:36;102048.87;;;17.91;87.80
33265;BME280;31404;53.974;-1.086;2023-06-22T20:30:36;102049.57;;;18.17;85.84
33265;BME280;31404;53.974;-1.086;2023-06-22T20:35:35;102065.93;;;16.62;94.87
33265;BME280;31404;53.974;-1.086;2023-06-22T20:40:35;102073.79;;;18.26;86.58
33265;BME280;31404;53.974;-1.086;2023-06-22T20:50:36;102087.37;;;18.07;85.51
33265;BME280;31404;53.974;-1.086;2023-06-22T20:55:35;102099.53;;;16.56;91.38
33265;BME280;31404;53.974;-1.086;2023-06-22T21:00:35;102095.50;;;19.16;81.10
33265;BME280;31404;53.974;-1.086;2023-06-22T21:05:35;102097.41;;;18.17;84.24
33265;BME280;31404;53.974;-1.086;2023-06-22T21:10:35;102089.71;;;17.88;85.47
33265;BME280;31404;53.974;-1.086;2023-06-22T21:15:35;102089.81;;;17.24;88.62
33265;BME280;31404;53.974;-1.086;2023-06-22T21:20:34;102092.83;;;18.21;84.26
33265;BME280;31404;53.974;-1.086;2023-06-22T21:25:35;102099.77;;;19.05;80.36
33265;BME280;31404;53.974;-1.086;2023-06-22T21:30:34;102097.83;;;17.61;85.53
33265;BME280;31404;53.974;-1.086;2023-06-22T21:35:35;102100.55;;;17.72;86.01
33265;BME280;31404;53.974;-1.086;2023-06-22T21:40:35;102115.39;;;17.93;83.65
33265;BME280;31404;53.974;-1.086;2023-06-22T21:45:35;102118.72;;;18.07;83.65
33265;BME280;31404;53.974;-1.086;2023-06-22T21:50:35;102122.32;;;17.65;85.08
33265;BME280;31404;53.974;-1.086;2023-06-22T21:55:35;102127.22;;;15.83;94.52
33265;BME280;31404;53.974;-1.086;2023-06-22T22:00:34;102129.94;;;17.16;90.16
33265;BME280;31404;53.974;-1.086;2023-06-22T22:05:35;102122.26;;;16.84;89.31
33265;BME280;31404;53.974;-1.086;2023-06-22T22:10:35;102121.40;;;17.00;88.51
33265;BME280;31404;53.974;-1.086;2023-06-22T22:15:34;102117.45;;;17.67;85.56
33265;BME280;31404;53.974;-1.086;2023-06-22T22:20:35;102125.65;;;16.77;88.88
33265;BME280;31404;53.974;-1.086;2023-06-22T22:25:39;102121.84;;;17.29;86.31
33265;BME280;31404;53.974;-1.086;2023-06-22T22:30:34;102115.05;;;17.43;86.22
33265;BME280;31404;53.974;-1.086;2023-06-22T22:35:34;102112.99;;;18.01;82.28
33265;BME280;31404;53.974;-1.086;2023-06-22T22:40:34;102117.90;;;17.46;85.04
33265;BME280;31404;53.974;-1.086;2023-06-22T22:45:35;102116.55;;;18.20;82.42
33265;BME280;31404;53.974;-1.086;2023-06-22T22:50:35;102121.64;;;18.59;79.03
33265;BME280;31404;53.974;-1.086;2023-06-22T22:55:35;102129.04;;;18.83;78.69
33265;BME280;31404;53.974;-1.086;2023-06-22T23:00:35;102122.52;;;18.48;79.57
33265;BME280;31404;53.974;-1.086;2023-06-22T23:05:35;102119.37;;;18.12;80.85
33265;BME280;31404;53.974;-1.086;2023-06-22T23:10:35;102131.21;;;16.77;86.80
33265;BME280;31404;53.974;-1.086;2023-06-22T23:15:35;102122.78;;;16.32;90.12
33265;BME280;31404;53.974;-1.086;2023-06-22T23:20:34;102124.19;;;16.78;87.68
33265;BME280;31404;53.974;-1.086;2023-06-22T23:25:34;102118.80;;;16.67;87.47
33265;BME280;31404;53.974;-1.086;2023-06-22T23:30:34;102111.15;;;17.09;85.50
33265;BME280;31404;53.974;-1.086;2023-06-22T23:35:34;102109.91;;;17.99;81.71
33265;BME280;31404;53.974;-1.086;2023-06-22T23:40:34;102107.79;;;18.00;82.31
33265;BME280;31404;53.974;-1.086;2023-06-22T23:45:34;102105.84;;;17.70;84.12
33265;BME280;31404;53.974;-1.086;2023-06-22T23:50:34;102103.40;;;17.63;84.66
33265;BME280;31404;53.974;-1.086;2023-06-22T23:55:35;102110.42;;;17.15;85.89
